sensor_id;sensor_type;location;lat;lon;timestamp;pressure;altitude;pressure_sealevel;temperature;humidity
23589;BME280;11972;48.078;11.876;2023-03-25T00:00:12;94897.00;;;6.84;100.00
23589;BME280;11972;48.078;11.876;2023-03-25T00:04:14;94902.66;;;6.73;100.00
23589;BME280;11972;48.078;11.876;2023-03-25T00:08:16;94898.44;;;6.64;100.00
23589;BME280;11972;48.078;11.876;2023-03-25T00:12:17;94895.22;;;6.54;100.00
23589;BME280;11972;48.078;11.876;2023-03-25T00:16:17;94888.38;;;6.44;100.00
23589;BME280;11972;48.078;11.876;2023-03-25T00:20:18;94888.44;;;6.36;100.00
23589;BME280;11972;48.078;11.876;2023-03-25T00:24:19;94889.16;;;6.22;100.00
23589;BME280;11972;48.078;11.876;2023-03-25T00:28:19;94887.53;;;6.13;100.00
23589;BME280;11972;48.078;11.876;2023-03-25T00:32:20;94884.91;;;6.13;100.00
23589;BME280;11972;48.078;11.876;2023-03-25T00:36:20;94875.75;;;6.09;100.00
23589;BME280;11972;48.078;11.876;2023-03-25T00:40:21;94870.22;;;6.04;100.00
23589;BME280;11972;48.078;11.876;2023-03-25T00:44:21;94876.44;;;6.03;100.00
23589;BME280;11972;48.078;11.876;2023-03-25T00:48:22;94881.03;;;6.01;100.00
23589;BME280;11972;48.078;11.876;2023-03-25T00:52:22;94872.84;;;6.04;100.00
23589;BME280;11972;48.078;11.876;2023-03-25T00:56:23;94861.84;;;6.08;100.00
23589;BME280;11972;48.078;11.876;2023-03-25T01:00:23;94860.03;;;6.09;100.00
23589;BME280;11972;48.078;11.876;2023-03-25T01:04:24;94865.63;;;6.06;100.00
23589;BME280;11972;48.078;11.876;2023-03-25T01:08:24;94872.50;;;6.07;100.00
23589;BME280;11972;48.078;11.876;2023-03-25T01:12:28;94867.94;;;6.01;100.00
23589;BME280;11972;48.078;11.876;2023-03-25T01:16:30;94855.00;;;5.99;100.00
23589;BME280;11972;48.078;11.876;2023-03-25T01:20:30;94844.63;;;6.14;100.00
23589;BME280;11972;48.078;11.876;2023-03-25T01:24:31;94844.84;;;6.35;100.00
23589;BME280;11972;48.078;11.876;2023-03-25T01:28:31;94845.03;;;6.57;100.00
23589;BME280;11972;48.078;11.876;2023-03-25T01:32:31;94837.38;;;6.70;100.00
23589;BME280;11972;48.078;11.876;2023-03-25T01:36:32;94837.16;;;6.80;100.00
23589;BME280;11972;48.078;11.876;2023-03-25T01:40:32;94832.38;;;6.83;100.00
23589;BME280;11972;48.078;11.876;2023-03-25T01:48:36;94838.53;;;6.90;100.00
23589;BME280;11972;48.078;11.876;2023-03-25T01:52:44;94831.88;;;7.03;100.00
23589;BME280;11972;48.078;11.876;2023-03-25T01:56:47;94822.34;;;7.25;100.00
23589;BME280;11972;48.078;11.876;2023-03-25T02:00:49;94831.25;;;7.38;100.00
23589;BME280;11972;48.078;11.876;2023-03-25T02:05:00;94822.19;;;7.56;100.00
23589;BME280;11972;48.078;11.876;2023-03-25T02:09:03;94817.13;;;7.69;100.00
23589;BME280;11972;48.078;11.876;2023-03-25T02:13:05;94801.16;;;7.85;100.00
23589;BME280;11972;48.078;11.876;2023-03-25T02:17:21;94812.22;;;7.95;100.00
23589;BME280;11972;48.078;11.876;2023-03-25T02:21:54;94802.56;;;8.17;100.00
23589;BME280;11972;48.078;11.876;2023-03-25T02:38:59;94799.25;;;8.30;100.00
23589;BME280;11972;48.078;11.876;2023-03-25T02:43:13;94797.13;;;8.19;100.00
23589;BME280;11972;48.078;11.876;2023-03-25T02:47:20;94794.44;;;7.97;100.00
23589;BME280;11972;48.078;11.876;2023-03-25T02:51:27;94804.44;;;7.72;100.00
23589;BME280;11972;48.078;11.876;2023-03-25T02:55:29;94812.31;;;7.43;100.00
23589;BME280;11972;48.078;11.876;2023-03-25T02:59:33;94811.13;;;7.16;100.00
23589;BME280;11972;48.078;11.876;2023-03-25T03:03:37;94808.09;;;7.04;100.00
23589;BME280;11972;48.078;11.876;2023-03-25T03:07:40;94811.94;;;6.93;100.00
23589;BME280;11972;48.078;11.876;2023-03-25T03:16:08;94818.81;;;6.94;100.00
23589;BME280;11972;48.078;11.876;2023-03-25T03:20:18;94821.16;;;7.12;100.00
23589;BME280;11972;48.078;11.876;2023-03-25T03:24:37;94814.22;;;7.34;100.00
23589;BME280;11972;48.078;11.876;2023-03-25T03:29:06;94818.84;;;7.62;100.00
23589;BME280;11972;48.078;11.876;2023-03-25T03:33:20;94809.88;;;7.71;100.00
23589;BME280;11972;48.078;11.876;2023-03-25T03:37:29;94793.38;;;7.62;100.00
23589;BME280;11972;48.078;11.876;2023-03-25T03:41:34;94806.25;;;7.42;100.00
23589;BME280;11972;48.078;11.876;2023-03-25T03:45:45;94812.94;;;7.30;100.00
23589;BME280;11972;48.078;11.876;2023-03-25T03:49:57;94813.75;;;7.31;100.00
23589;BME280;11972;48.078;11.876;2023-03-25T03:54:06;94806.06;;;7.29;100.00
23589;BME280;11972;48.078;11.876;2023-03-25T03:58:13;94826.69;;;7.32;100.00
23589;BME280;11972;48.078;11.876;2023-03-25T04:02:27;94838.94;;;7.25;100.00
23589;BME280;11972;48.078;11.876;2023-03-25T04:06:38;94840.16;;;7.14;100.00
23589;BME280;11972;48.078;11.876;2023-03-25T04:10:42;94842.28;;;6.96;100.00
23589;BME280;11972;48.078;11.876;2023-03-25T04:14:46;94839.25;;;6.84;100.00
23589;BME280;11972;48.078;11.876;2023-03-25T04:18:46;94837.31;;;6.78;100.00
23589;BME280;11972;48.078;11.876;2023-03-25T04:22:48;94839.66;;;6.73;100.00
23589;BME280;11972;48.078;11.876;2023-03-25T04:26:50;94836.00;;;6.59;100.00
23589;BME280;11972;48.078;11.876;2023-03-25T04:30:52;94837.59;;;6.37;100.00
23589;BME280;11972;48.078;11.876;2023-03-25T04:34:54;94839.34;;;6.22;100.00
23589;BME280;11972;48.078;11.876;2023-03-25T04:38:56;94854.63;;;6.10;100.00
23589;BME280;11972;48.078;11.876;2023-03-25T04:42:57;94850.38;;;6.09;100.00
23589;BME280;11972;48.078;11.876;2023-03-25T04:46:58;94858.59;;;6.06;100.00
23589;BME280;11972;48.078;11.876;2023-03-25T04:51:00;94859.03;;;6.18;100.00
23589;BME280;11972;48.078;11.876;2023-03-25T04:55:02;94850.41;;;6.32;100.00
23589;BME280;11972;48.078;11.876;2023-03-25T04:59:04;94845.94;;;6.41;100.00
23589;BME280;11972;48.078;11.876;2023-03-25T05:03:05;94834.59;;;6.49;100.00
23589;BME280;11972;48.078;11.876;2023-03-25T05:07:05;94844.03;;;6.58;100.00
23589;BME280;11972;48.078;11.876;2023-03-25T05:11:06;94838.84;;;6.72;100.00
23589;BME280;11972;48.078;11.876;2023-03-25T05:15:08;94838.97;;;6.79;100.00
23589;BME280;11972;48.078;11.876;2023-03-25T05:19:09;94828.97;;;6.75;100.00
23589;BME280;11972;48.078;11.876;2023-03-25T05:23:11;94830.22;;;6.64;100.00
23589;BME280;11972;48.078;11.876;2023-03-25T05:27:15;94832.72;;;6.57;100.00
23589;BME280;11972;48.078;11.876;2023-03-25T05:31:19;94826.38;;;6.52;100.00
23589;BME280;11972;48.078;11.876;2023-03-25T05:35:19;94829.34;;;6.49;100.00
23589;BME280;11972;48.078;11.876;2023-03-25T05:39:19;94827.66;;;6.56;100.00
23589;BME280;11972;48.078;11.876;2023-03-25T05:43:20;94832.66;;;6.65;100.00
23589;BME280;11972;48.078;11.876;2023-03-25T05:47:24;94849.75;;;6.84;100.00
23589;BME280;11972;48.078;11.876;2023-03-25T05:51:25;94848.91;;;7.07;100.00
23589;BME280;11972;48.078;11.876;2023-03-25T05:55:26;94853.66;;;7.49;100.00
23589;BME280;11972;48.078;11.876;2023-03-25T05:59:27;94866.44;;;7.96;100.00
23589;BME280;11972;48.078;11.876;2023-03-25T06:03:27;94879.22;;;8.44;100.00
23589;BME280;11972;48.078;11.876;2023-03-25T06:07:27;94868.63;;;8.74;100.00
23589;BME280;11972;48.078;11.876;2023-03-25T06:11:28;94873.94;;;8.80;100.00
23589;BME280;11972;48.078;11.876;2023-03-25T06:15:29;94889.00;;;8.86;100.00
23589;BME280;11972;48.078;11.876;2023-03-25T06:19:32;94893.63;;;8.84;100.00
23589;BME280;11972;48.078;11.876;2023-03-25T06:23:38;94895.75;;;8.74;100.00
23589;BME280;11972;48.078;11.876;2023-03-25T06:27:38;94922.09;;;8.74;100.00
23589;BME280;11972;48.078;11.876;2023-03-25T06:31:41;94909.84;;;8.66;100.00
23589;BME280;11972;48.078;11.876;2023-03-25T06:35:42;94914.56;;;8.92;100.00
23589;BME280;11972;48.078;11.876;2023-03-25T06:39:42;94910.84;;;9.23;100.00
23589;BME280;11972;48.078;11.876;2023-03-25T06:43:48;94926.00;;;9.00;100.00
23589;BME280;11972;48.078;11.876;2023-03-25T06:47:49;94920.47;;;8.73;100.00
23589;BME280;11972;48.078;11.876;2023-03-25T06:51:49;94922.22;;;8.51;100.00
23589;BME280;11972;48.078;11.876;2023-03-25T06:55:49;94937.19;;;8.36;100.00
23589;BME280;11972;48.078;11.876;2023-03-25T06:59:50;94958.59;;;8.18;100.00
23589;BME280;11972;48.078;11.876;2023-03-25T07:03:50;94945.78;;;8.00;100.00
23589;BME280;11972;48.078;11.876;2023-03-25T07:07:51;94942.59;;;7.90;100.00
23589;BME280;11972;48.078;11.876;2023-03-25T07:11:51;94953.66;;;7.85;100.00
23589;BME280;11972;48.078;11.876;2023-03-25T07:15:54;94947.34;;;7.94;100.00
23589;BME280;11972;48.078;11.876;2023-03-25T07:19:54;94948.78;;;8.12;100.00
23589;BME280;11972;48.078;11.876;2023-03-25T07:23:55;94951.34;;;8.20;100.00
23589;BME280;11972;48.078;11.876;2023-03-25T07:27:55;94958.97;;;8.15;100.00
23589;BME280;11972;48.078;11.876;2023-03-25T07:31:55;94966.56;;;8.10;100.00
23589;BME280;11972;48.078;11.876;2023-03-25T07:35:56;94974.66;;;8.23;100.00
23589;BME280;11972;48.078;11.876;2023-03-25T07:39:56;94976.91;;;8.26;100.00
23589;BME280;11972;48.078;11.876;2023-03-25T07:43:56;94971.56;;;8.19;100.00
23589;BME280;11972;48.078;11.876;2023-03-25T07:48:01;94992.78;;;8.18;100.00
23589;BME280;11972;48.078;11.876;2023-03-25T07:52:02;94994.78;;;8.31;100.00
23589;BME280;11972;48.078;11.876;2023-03-25T07:56:02;94995.47;;;8.48;100.00
23589;BME280;11972;48.078;11.876;2023-03-25T08:00:03;94989.63;;;8.67;100.00
23589;BME280;11972;48.078;11.876;2023-03-25T08:04:05;94981.72;;;8.82;100.00
23589;BME280;11972;48.078;11.876;2023-03-25T08:08:06;94986.25;;;8.88;100.00
23589;BME280;11972;48.078;11.876;2023-03-25T08:12:07;94994.78;;;8.90;100.00
23589;BME280;11972;48.078;11.876;2023-03-25T08:16:12;94996.97;;;8.86;100.00
23589;BME280;11972;48.078;11.876;2023-03-25T08:20:13;95005.78;;;8.79;100.00
23589;BME280;11972;48.078;11.876;2023-03-25T08:24:13;95000.53;;;8.64;100.00
23589;BME280;11972;48.078;11.876;2023-03-25T08:28:16;94997.97;;;8.85;100.00
23589;BME280;11972;48.078;11.876;2023-03-25T08:32:16;95005.84;;;9.58;100.00
23589;BME280;11972;48.078;11.876;2023-03-25T08:36:17;94978.59;;;9.72;100.00
23589;BME280;11972;48.078;11.876;2023-03-25T08:40:22;95013.38;;;9.82;100.00
23589;BME280;11972;48.078;11.876;2023-03-25T08:44:22;95013.25;;;9.69;100.00
23589;BME280;11972;48.078;11.876;2023-03-25T08:48:25;94986.84;;;9.90;100.00
23589;BME280;11972;48.078;11.876;2023-03-25T08:52:26;95008.72;;;10.34;100.00
23589;BME280;11972;48.078;11.876;2023-03-25T08:56:27;95001.13;;;10.52;100.00
23589;BME280;11972;48.078;11.876;2023-03-25T09:00:27;94999.25;;;10.18;100.00
23589;BME280;11972;48.078;11.876;2023-03-25T09:04:31;95005.19;;;9.99;100.00
23589;BME280;11972;48.078;11.876;2023-03-25T09:08:32;95002.94;;;9.74;100.00
23589;BME280;11972;48.078;11.876;2023-03-25T09:12:33;95000.84;;;9.63;100.00
23589;BME280;11972;48.078;11.876;2023-03-25T09:16:34;94991.22;;;9.55;100.00
23589;BME280;11972;48.078;11.876;2023-03-25T09:20:41;94989.41;;;9.56;100.00
23589;BME280;11972;48.078;11.876;2023-03-25T09:24:41;94989.41;;;9.56;100.00
23589;BME280;11972;48.078;11.876;2023-03-25T09:28:47;94983.00;;;9.65;100.00
23589;BME280;11972;48.078;11.876;2023-03-25T09:32:48;94981.34;;;9.85;100.00
23589;BME280;11972;48.078;11.876;2023-03-25T09:36:49;94978.88;;;10.12;100.00
23589;BME280;11972;48.078;11.876;2023-03-25T09:40:49;94975.19;;;10.62;100.00
23589;BME280;11972;48.078;11.876;2023-03-25T09:45:14;94973.63;;;11.36;100.00
23589;BME280;11972;48.078;11.876;2023-03-25T09:49:22;94999.28;;;11.62;100.00
23589;BME280;11972;48.078;11.876;2023-03-25T09:57:45;94985.94;;;11.09;100.00
23589;BME280;11972;48.078;11.876;2023-03-25T10:02:06;94939.56;;;11.00;100.00
23589;BME280;11972;48.078;11.876;2023-03-25T10:06:20;94928.28;;;11.46;100.00
23589;BME280;11972;48.078;11.876;2023-03-25T10:10:38;94932.97;;;12.03;100.00
23589;BME280;11972;48.078;11.876;2023-03-25T10:23:42;94934.34;;;12.32;100.00
23589;BME280;11972;48.078;11.876;2023-03-25T10:27:51;94918.06;;;12.35;100.00
23589;BME280;11972;48.078;11.876;2023-03-25T10:31:53;94905.19;;;12.46;100.00
23589;BME280;11972;48.078;11.876;2023-03-25T10:35:57;94902.00;;;12.75;100.00
23589;BME280;11972;48.078;11.876;2023-03-25T10:40:16;94881.09;;;12.60;100.00
23589;BME280;11972;48.078;11.876;2023-03-25T10:44:20;94860.63;;;12.29;100.00
23589;BME280;11972;48.078;11.876;2023-03-25T10:48:23;94878.22;;;12.04;100.00
23589;BME280;11972;48.078;11.876;2023-03-25T10:52:24;94916.00;;;12.37;100.00
23589;BME280;11972;48.078;11.876;2023-03-25T10:56:32;94879.72;;;12.45;100.00
23589;BME280;11972;48.078;11.876;2023-03-25T11:00:33;94892.19;;;12.37;100.00
23589;BME280;11972;48.078;11.876;2023-03-25T11:04:37;94896.25;;;12.33;100.00
23589;BME280;11972;48.078;11.876;2023-03-25T11:09:36;94903.78;;;12.36;100.00
23589;BME280;11972;48.078;11.876;2023-03-25T11:13:23;94905.28;;;11.79;100.00
23589;BME280;11972;48.078;11.876;2023-03-25T11:17:24;94882.28;;;11.47;100.00
23589;BME280;11972;48.078;11.876;2023-03-25T11:21:29;94862.75;;;11.34;100.00
23589;BME280;11972;48.078;11.876;2023-03-25T11:25:35;94859.31;;;11.40;100.00
23589;BME280;11972;48.078;11.876;2023-03-25T11:29:38;94842.00;;;11.78;100.00
23589;BME280;11972;48.078;11.876;2023-03-25T11:33:41;94854.22;;;11.92;100.00
23589;BME280;11972;48.078;11.876;2023-03-25T11:37:46;94848.06;;;12.18;100.00
23589;BME280;11972;48.078;11.876;2023-03-25T11:41:48;94849.56;;;12.52;100.00
23589;BME280;11972;48.078;11.876;2023-03-25T11:45:49;94846.72;;;12.47;100.00
23589;BME280;11972;48.078;11.876;2023-03-25T11:49:51;94813.75;;;12.81;100.00
23589;BME280;11972;48.078;11.876;2023-03-25T11:53:58;94816.41;;;12.75;100.00
23589;BME280;11972;48.078;11.876;2023-03-25T11:58:00;94797.69;;;12.76;100.00
23589;BME280;11972;48.078;11.876;2023-03-25T12:02:21;94816.97;;;12.83;100.00
23589;BME280;11972;48.078;11.876;2023-03-25T12:06:22;94815.34;;;12.82;100.00
23589;BME280;11972;48.078;11.876;2023-03-25T12:11:04;94801.31;;;12.75;100.00
23589;BME280;11972;48.078;11.876;2023-03-25T12:15:14;94786.56;;;12.93;100.00
23589;BME280;11972;48.078;11.876;2023-03-25T12:24:35;94802.72;;;12.84;100.00
23589;BME280;11972;48.078;11.876;2023-03-25T12:28:47;94813.94;;;12.41;100.00
23589;BME280;11972;48.078;11.876;2023-03-25T12:46:42;94796.03;;;12.75;100.00
23589;BME280;11972;48.078;11.876;2023-03-25T13:07:49;94818.41;;;12.41;100.00
23589;BME280;11972;48.078;11.876;2023-03-25T13:12:03;94795.09;;;12.18;100.00
23589;BME280;11972;48.078;11.876;2023-03-25T13:16:10;94804.22;;;12.29;100.00
23589;BME280;11972;48.078;11.876;2023-03-25T13:20:15;94819.13;;;12.23;100.00
23589;BME280;11972;48.078;11.876;2023-03-25T13:24:20;94802.03;;;12.12;100.00
23589;BME280;11972;48.078;11.876;2023-03-25T13:28:35;94832.19;;;12.05;100.00
23589;BME280;11972;48.078;11.876;2023-03-25T13:32:58;94834.28;;;11.89;100.00
23589;BME280;11972;48.078;11.876;2023-03-25T13:37:33;94837.34;;;11.73;100.00
23589;BME280;11972;48.078;11.876;2023-03-25T13:42:03;94838.72;;;11.96;100.00
23589;BME280;11972;48.078;11.876;2023-03-25T13:46:13;94842.00;;;11.78;100.00
23589;BME280;11972;48.078;11.876;2023-03-25T13:50:21;94831.88;;;11.48;100.00
23589;BME280;11972;48.078;11.876;2023-03-25T13:54:29;94855.84;;;11.86;100.00
23589;BME280;11972;48.078;11.876;2023-03-25T13:59:03;94850.16;;;11.63;100.00
23589;BME280;11972;48.078;11.876;2023-03-25T14:15:56;94830.97;;;12.01;100.00
23589;BME280;11972;48.078;11.876;2023-03-25T14:19:58;94824.94;;;11.54;100.00
23589;BME280;11972;48.078;11.876;2023-03-25T14:24:09;94824.09;;;11.60;100.00
23589;BME280;11972;48.078;11.876;2023-03-25T14:28:15;94795.22;;;11.65;100.00
23589;BME280;11972;48.078;11.876;2023-03-25T14:36:27;94803.75;;;11.94;100.00
23589;BME280;11972;48.078;11.876;2023-03-25T14:44:48;94828.03;;;12.29;100.00
23589;BME280;11972;48.078;11.876;2023-03-25T14:53:09;94804.72;;;12.51;100.00
23589;BME280;11972;48.078;11.876;2023-03-25T14:57:17;94792.88;;;12.60;100.00
23589;BME280;11972;48.078;11.876;2023-03-25T15:01:32;94793.50;;;12.87;100.00
23589;BME280;11972;48.078;11.876;2023-03-25T15:05:33;94798.06;;;12.80;100.00
23589;BME280;11972;48.078;11.876;2023-03-25T15:09:44;94789.41;;;12.91;100.00
23589;BME280;11972;48.078;11.876;2023-03-25T15:13:50;94786.88;;;13.34;100.00
23589;BME280;11972;48.078;11.876;2023-03-25T15:17:54;94773.22;;;13.56;100.00
23589;BME280;11972;48.078;11.876;2023-03-25T15:25:59;94807.94;;;13.29;100.00
23589;BME280;11972;48.078;11.876;2023-03-25T15:34:16;94795.28;;;12.68;100.00
23589;BME280;11972;48.078;11.876;2023-03-25T15:52:24;94786.09;;;12.26;100.00
23589;BME280;11972;48.078;11.876;2023-03-25T15:56:32;94787.19;;;12.05;100.00
23589;BME280;11972;48.078;11.876;2023-03-25T16:00:39;94780.97;;;11.66;100.00
23589;BME280;11972;48.078;11.876;2023-03-25T16:04:42;94779.56;;;11.57;100.00
23589;BME280;11972;48.078;11.876;2023-03-25T16:08:47;94798.91;;;11.24;100.00
23589;BME280;11972;48.078;11.876;2023-03-25T16:12:49;94801.97;;;10.95;100.00
23589;BME280;11972;48.078;11.876;2023-03-25T16:16:52;94814.34;;;10.87;100.00
23589;BME280;11972;48.078;11.876;2023-03-25T16:20:55;94825.94;;;11.00;100.00
23589;BME280;11972;48.078;11.876;2023-03-25T16:25:00;94805.41;;;11.48;100.00
23589;BME280;11972;48.078;11.876;2023-03-25T16:29:17;94795.97;;;11.99;100.00
23589;BME280;11972;48.078;11.876;2023-03-25T16:33:30;94811.06;;;11.78;100.00
23589;BME280;11972;48.078;11.876;2023-03-25T16:37:31;94800.53;;;11.38;100.00
23589;BME280;11972;48.078;11.876;2023-03-25T16:41:34;94795.66;;;11.02;100.00
23589;BME280;11972;48.078;11.876;2023-03-25T16:45:35;94811.06;;;10.72;100.00
23589;BME280;11972;48.078;11.876;2023-03-25T16:49:36;94819.97;;;10.58;100.00
23589;BME280;11972;48.078;11.876;2023-03-25T16:53:37;94814.63;;;10.44;100.00
23589;BME280;11972;48.078;11.876;2023-03-25T16:57:39;94815.41;;;10.25;100.00
23589;BME280;11972;48.078;11.876;2023-03-25T17:01:41;94819.69;;;10.33;100.00
23589;BME280;11972;48.078;11.876;2023-03-25T17:06:21;94821.59;;;10.59;100.00
23589;BME280;11972;48.078;11.876;2023-03-25T17:10:27;94854.47;;;10.50;100.00
23589;BME280;11972;48.078;11.876;2023-03-25T17:14:35;94852.63;;;10.43;100.00
23589;BME280;11972;48.078;11.876;2023-03-25T17:18:36;94873.56;;;10.52;100.00
23589;BME280;11972;48.078;11.876;2023-03-25T17:22:39;94861.59;;;10.56;100.00
23589;BME280;11972;48.078;11.876;2023-03-25T17:26:57;94870.75;;;10.60;100.00
23589;BME280;11972;48.078;11.876;2023-03-25T17:31:26;94876.81;;;10.12;100.00
23589;BME280;11972;48.078;11.876;2023-03-25T17:35:30;94886.22;;;9.59;100.00
23589;BME280;11972;48.078;11.876;2023-03-25T17:39:32;94889.69;;;9.16;100.00
23589;BME280;11972;48.078;11.876;2023-03-25T17:43:52;94893.00;;;8.82;100.00
23589;BME280;11972;48.078;11.876;2023-03-25T17:47:54;94902.50;;;8.62;100.00
23589;BME280;11972;48.078;11.876;2023-03-25T17:51:54;94905.50;;;8.59;100.00
23589;BME280;11972;48.078;11.876;2023-03-25T17:55:55;94899.81;;;8.40;100.00
23589;BME280;11972;48.078;11.876;2023-03-25T17:59:58;94900.59;;;8.26;100.00
23589;BME280;11972;48.078;11.876;2023-03-25T18:03:58;94893.72;;;8.10;100.00
23589;BME280;11972;48.078;11.876;2023-03-25T18:07:58;94886.66;;;7.96;100.00
23589;BME280;11972;48.078;11.876;2023-03-25T18:12:00;94906.72;;;7.82;100.00
23589;BME280;11972;48.078;11.876;2023-03-25T18:16:00;94902.06;;;7.69;100.00
23589;BME280;11972;48.078;11.876;2023-03-25T18:20:05;94894.34;;;7.68;100.00
23589;BME280;11972;48.078;11.876;2023-03-25T18:24:10;94905.34;;;7.49;100.00
23589;BME280;11972;48.078;11.876;2023-03-25T18:28:11;94922.78;;;7.50;100.00
23589;BME280;11972;48.078;11.876;2023-03-25T18:32:12;94937.19;;;7.54;100.00
23589;BME280;11972;48.078;11.876;2023-03-25T18:36:13;94923.13;;;7.46;100.00
23589;BME280;11972;48.078;11.876;2023-03-25T18:40:16;94921.84;;;7.42;100.00
23589;BME280;11972;48.078;11.876;2023-03-25T18:44:18;94941.59;;;7.38;100.00
23589;BME280;11972;48.078;11.876;2023-03-25T18:48:19;94933.28;;;7.50;100.00
23589;BME280;11972;48.078;11.876;2023-03-25T18:52:20;94952.50;;;7.50;100.00
23589;BME280;11972;48.078;11.876;2023-03-25T18:56:20;94947.13;;;7.43;100.00
23589;BME280;11972;48.078;11.876;2023-03-25T19:00:31;94952.09;;;7.38;100.00
23589;BME280;11972;48.078;11.876;2023-03-25T19:04:33;94958.75;;;7.26;100.00
23589;BME280;11972;48.078;11.876;2023-03-25T19:08:35;94960.72;;;7.24;100.00
23589;BME280;11972;48.078;11.876;2023-03-25T19:12:36;94965.06;;;7.17;100.00
23589;BME280;11972;48.078;11.876;2023-03-25T19:16:36;94964.66;;;7.05;100.00
23589;BME280;11972;48.078;11.876;2023-03-25T19:20:36;94964.22;;;6.93;100.00
23589;BME280;11972;48.078;11.876;2023-03-25T19:24:37;94962.47;;;6.86;100.00
23589;BME280;11972;48.078;11.876;2023-03-25T19:28:37;94961.31;;;6.88;100.00
23589;BME280;11972;48.078;11.876;2023-03-25T19:32:38;94965.09;;;6.86;100.00
23589;BME280;11972;48.078;11.876;2023-03-25T19:36:38;94953.78;;;6.85;100.00
23589;BME280;11972;48.078;11.876;2023-03-25T19:40:39;94957.44;;;6.76;100.00
23589;BME280;11972;48.078;11.876;2023-03-25T19:44:39;94971.91;;;6.72;100.00
23589;BME280;11972;48.078;11.876;2023-03-25T19:48:40;94950.22;;;6.70;100.00
23589;BME280;11972;48.078;11.876;2023-03-25T19:52:41;94958.28;;;6.68;100.00
23589;BME280;11972;48.078;11.876;2023-03-25T19:56:42;94955.84;;;6.67;100.00
23589;BME280;11972;48.078;11.876;2023-03-25T20:00:42;94978.19;;;6.63;100.00
23589;BME280;11972;48.078;11.876;2023-03-25T20:04:43;94958.56;;;6.51;100.00
23589;BME280;11972;48.078;11.876;2023-03-25T20:08:43;94960.72;;;6.39;100.00
23589;BME280;11972;48.078;11.876;2023-03-25T20:12:44;94960.56;;;6.32;100.00
23589;BME280;11972;48.078;11.876;2023-03-25T20:16:45;94962.41;;;6.24;100.00
23589;BME280;11972;48.078;11.876;2023-03-25T20:20:45;94971.59;;;6.19;100.00
23589;BME280;11972;48.078;11.876;2023-03-25T20:24:45;94962.94;;;6.11;100.00
23589;BME280;11972;48.078;11.876;2023-03-25T20:28:46;94951.97;;;6.07;100.00
23589;BME280;11972;48.078;11.876;2023-03-25T20:32:48;94964.59;;;6.04;100.00
23589;BME280;11972;48.078;11.876;2023-03-25T20:36:48;94959.84;;;5.99;100.00
23589;BME280;11972;48.078;11.876;2023-03-25T20:40:51;94955.75;;;5.96;100.00
23589;BME280;11972;48.078;11.876;2023-03-25T20:44:53;94964.59;;;5.95;100.00
23589;BME280;11972;48.078;11.876;2023-03-25T20:48:54;94966.25;;;5.96;100.00
23589;BME280;11972;48.078;11.876;2023-03-25T20:52:54;94970.34;;;5.99;100.00
23589;BME280;11972;48.078;11.876;2023-03-25T20:56:55;94961.97;;;6.04;100.00
23589;BME280;11972;48.078;11.876;2023-03-25T21:00:55;94966.56;;;6.10;100.00
23589;BME280;11972;48.078;11.876;2023-03-25T21:04:58;94973.22;;;6.20;100.00
23589;BME280;11972;48.078;11.876;2023-03-25T21:08:58;94973.19;;;6.29;100.00
23589;BME280;11972;48.078;11.876;2023-03-25T21:12:59;94975.47;;;6.40;100.00
23589;BME280;11972;48.078;11.876;2023-03-25T21:16:59;94963.44;;;6.54;100.00
23589;BME280;11972;48.078;11.876;2023-03-25T21:21:01;94961.44;;;6.64;100.00
23589;BME280;11972;48.078;11.876;2023-03-25T21:25:02;94957.13;;;6.71;100.00
23589;BME280;11972;48.078;11.876;2023-03-25T21:29:03;94955.16;;;6.73;100.00
23589;BME280;11972;48.078;11.876;2023-03-25T21:33:03;94950.91;;;6.72;100.00
23589;BME280;11972;48.078;11.876;2023-03-25T21:37:04;94956.81;;;6.66;100.00
23589;BME280;11972;48.078;11.876;2023-03-25T21:41:06;94954.22;;;6.58;100.00
23589;BME280;11972;48.078;11.876;2023-03-25T21:45:11;94962.63;;;6.53;100.00
23589;BME280;11972;48.078;11.876;2023-03-25T21:49:13;94944.91;;;6.55;100.00
23589;BME280;11972;48.078;11.876;2023-03-25T21:53:15;94942.44;;;6.54;100.00
23589;BME280;11972;48.078;11.876;2023-03-25T21:57:19;94934.53;;;6.62;100.00
23589;BME280;11972;48.078;11.876;2023-03-25T22:01:21;94930.75;;;6.64;100.00
23589;BME280;11972;48.078;11.876;2023-03-25T22:05:27;94930.56;;;6.66;100.00
23589;BME280;11972;48.078;11.876;2023-03-25T22:09:32;94928.00;;;6.58;100.00
23589;BME280;11972;48.078;11.876;2023-03-25T22:13:33;94918.53;;;6.49;100.00
23589;BME280;11972;48.078;11.876;2023-03-25T22:17:34;94911.38;;;6.42;100.00
23589;BME280;11972;48.078;11.876;2023-03-25T22:21:34;94915.34;;;6.30;100.00
23589;BME280;11972;48.078;11.876;2023-03-25T22:25:36;94920.28;;;6.25;100.00
23589;BME280;11972;48.078;11.876;2023-03-25T22:29:36;94925.06;;;6.21;100.00
23589;BME280;11972;48.078;11.876;2023-03-25T22:33:38;94921.25;;;6.24;100.00
23589;BME280;11972;48.078;11.876;2023-03-25T22:37:38;94918.03;;;6.14;100.00
23589;BME280;11972;48.078;11.876;2023-03-25T22:41:39;94928.38;;;6.07;100.00
23589;BME280;11972;48.078;11.876;2023-03-25T22:45:39;94932.63;;;6.08;100.00
23589;BME280;11972;48.078;11.876;2023-03-25T22:49:39;94930.19;;;6.07;100.00
23589;BME280;11972;48.078;11.876;2023-03-25T22:53:40;94927.72;;;6.13;100.00
23589;BME280;11972;48.078;11.876;2023-03-25T22:57:41;94928.84;;;6.19;100.00
23589;BME280;11972;48.078;11.876;2023-03-25T23:01:41;94924.19;;;6.29;100.00
23589;BME280;11972;48.078;11.876;2023-03-25T23:05:54;94918.56;;;6.40;100.00
23589;BME280;11972;48.078;11.876;2023-03-25T23:09:54;94917.44;;;6.43;100.00